createdAt,value
2023-03-12T00:00:34.616Z,0.45
2023-03-12T00:03:06.185Z,0.53
2023-03-12T00:05:40.846Z,0.52
2023-03-12T00:08:13.155Z,0.47
2023-03-12T00:10:44.899Z,0.42
2023-03-12T00:13:16.534Z,0.38
2023-03-12T00:15:48.156Z,0.30
2023-03-12T00:18:19.898Z,0.16
2023-03-12T00:20:58.215Z,0.12
2023-03-12T00:23:30.325Z,0.11
2023-03-12T00:26:06.441Z,0.13
2023-03-12T00:28:39.059Z,0.20
2023-03-12T00:31:19.997Z,0.28
2023-03-12T00:33:52.132Z,0.46
2023-03-12T00:36:27.686Z,0.48
2023-03-12T00:39:02.006Z,0.49
2023-03-12T00:41:35.242Z,0.54
2023-03-12T00:44:07.103Z,0.45
2023-03-12T00:46:40.020Z,0.44
2023-03-12T00:49:12.139Z,0.42
2023-03-12T00:51:43.886Z,0.46
2023-03-12T00:54:15.424Z,0.53
2023-03-12T00:56:48.305Z,0.60
2023-03-12T00:59:20.353Z,0.59
2023-03-12T01:01:52.245Z,0.55
2023-03-12T01:04:24.804Z,0.43
2023-03-12T01:06:58.262Z,0.25
2023-03-12T01:09:30.873Z,0.21
2023-03-12T01:12:02.637Z,0.14
2023-03-12T01:14:34.447Z,0.28
2023-03-12T01:17:06.355Z,0.35
2023-03-12T01:19:37.858Z,0.30
2023-03-12T01:22:09.692Z,0.35
2023-03-12T01:24:41.195Z,0.44
2023-03-12T01:27:13.023Z,0.46
2023-03-12T01:29:44.626Z,0.41
2023-03-12T01:32:17.461Z,0.43
2023-03-12T01:34:49.487Z,0.47
2023-03-12T01:37:22.151Z,0.55
2023-03-12T01:39:54.591Z,0.52
2023-03-12T01:42:26.459Z,0.47
2023-03-12T01:45:00.834Z,0.42
2023-03-12T01:47:33.721Z,0.50
2023-03-12T01:50:06.196Z,0.57
2023-03-12T01:52:39.981Z,0.57
2023-03-12T01:55:15.024Z,0.60
2023-03-12T01:57:50.644Z,0.62
2023-03-12T02:00:25.546Z,0.73
2023-03-12T02:03:00.265Z,0.78
2023-03-12T02:05:38.635Z,0.71
2023-03-12T02:08:11.914Z,0.76
2023-03-12T02:10:45.599Z,0.86
2023-03-12T02:13:18.651Z,0.84
2023-03-12T02:15:50.316Z,0.94
2023-03-12T02:18:23.049Z,0.91
2023-03-12T02:21:03.054Z,0.79
2023-03-12T02:23:43.208Z,0.78
2023-03-12T02:26:16.505Z,0.83
2023-03-12T02:28:49.775Z,0.96
2023-03-12T02:31:25.817Z,0.94
2023-03-12T02:33:58.671Z,0.97
2023-03-12T02:36:30.440Z,0.84
2023-03-12T02:39:02.607Z,0.78
2023-03-12T02:41:38.591Z,0.82
2023-03-12T02:44:14.820Z,0.74
2023-03-12T02:46:49.519Z,0.79
2023-03-12T02:49:20.683Z,0.80
2023-03-12T02:51:52.767Z,0.77
2023-03-12T02:54:27.077Z,0.69
2023-03-12T02:56:59.588Z,0.71
2023-03-12T02:59:31.094Z,0.80
2023-03-12T03:02:04.698Z,0.80
2023-03-12T03:04:36.650Z,0.81
2023-03-12T03:07:09.954Z,0.82
2023-03-12T03:09:42.176Z,0.81
2023-03-12T03:12:14.015Z,0.78
2023-03-12T03:14:45.574Z,0.83
2023-03-12T03:17:18.431Z,1.03
2023-03-12T03:19:50.146Z,1.09
2023-03-12T03:22:23.378Z,0.97
2023-03-12T03:24:56.017Z,0.96
2023-03-12T03:27:27.844Z,0.94
2023-03-12T03:29:59.838Z,0.93
2023-03-12T03:32:32.093Z,1.03
2023-03-12T03:35:03.715Z,0.99
2023-03-12T03:37:35.314Z,1.01
2023-03-12T03:40:12.106Z,1.01
2023-03-12T03:42:43.900Z,1.04
2023-03-12T03:45:15.993Z,1.02
2023-03-12T03:47:48.132Z,1.13
2023-03-12T03:50:20.284Z,1.19
2023-03-12T03:52:51.862Z,1.23
2023-03-12T03:55:26.119Z,1.38
2023-03-12T03:57:57.860Z,1.42
2023-03-12T04:00:29.461Z,1.31
2023-03-12T04:03:01.099Z,1.17
2023-03-12T04:05:32.964Z,1.21
2023-03-12T04:08:04.776Z,1.23
2023-03-12T04:10:36.400Z,1.20
2023-03-12T04:13:09.190Z,1.23
2023-03-12T04:15:41.525Z,1.26
2023-03-12T04:18:13.270Z,1.21
2023-03-12T04:20:45.226Z,1.18
2023-03-12T04:23:16.835Z,1.24
2023-03-12T04:26:00.952Z,1.15
2023-03-12T04:28:47.393Z,1.10
2023-03-12T04:31:20.238Z,1.15
2023-03-12T04:33:51.887Z,1.19
2023-03-12T04:36:23.796Z,1.20
2023-03-12T04:38:55.608Z,1.29
2023-03-12T04:41:27.590Z,1.26
2023-03-12T04:44:00.024Z,1.35
2023-03-12T04:46:32.064Z,1.39
2023-03-12T04:49:04.442Z,1.48
2023-03-12T04:51:36.369Z,1.42
2023-03-12T04:54:08.572Z,1.34
2023-03-12T04:56:41.315Z,1.22
2023-03-12T04:59:13.772Z,1.26
2023-03-12T05:01:45.584Z,1.33
2023-03-12T05:04:17.886Z,1.44
2023-03-12T05:06:50.910Z,1.55
2023-03-12T05:09:22.528Z,1.59
2023-03-12T05:11:54.056Z,1.42
2023-03-12T05:14:25.930Z,1.43
2023-03-12T05:16:57.549Z,1.38
2023-03-12T05:19:30.435Z,1.32
2023-03-12T05:22:04.577Z,1.31
2023-03-12T05:24:37.179Z,1.32
2023-03-12T05:27:09.994Z,1.44
2023-03-12T05:29:42.378Z,1.45
2023-03-12T05:32:14.371Z,1.39
2023-03-12T05:34:46.036Z,1.44
2023-03-12T05:37:18.714Z,1.43
2023-03-12T05:39:50.405Z,1.51
2023-03-12T05:42:22.010Z,1.46
2023-03-12T05:44:53.500Z,1.43
2023-03-12T05:47:25.758Z,1.41
2023-03-12T05:49:57.919Z,1.41
2023-03-12T05:52:29.757Z,1.40
2023-03-12T05:55:01.832Z,1.40
2023-03-12T05:57:33.857Z,1.46
2023-03-12T06:00:10.016Z,1.59
2023-03-12T06:02:41.740Z,1.64
2023-03-12T06:05:16.449Z,1.65
2023-03-12T06:07:48.729Z,1.57
2023-03-12T06:10:20.668Z,1.56
2023-03-12T06:12:52.488Z,1.54
2023-03-12T06:15:24.309Z,1.59
2023-03-12T06:17:56.587Z,1.55
2023-03-12T06:20:29.428Z,1.56
2023-03-12T06:23:02.551Z,1.64
2023-03-12T06:25:34.292Z,1.65
2023-03-12T06:28:06.438Z,1.66
2023-03-12T06:30:38.603Z,1.70
2023-03-12T06:33:11.059Z,1.75
2023-03-12T06:35:43.643Z,1.76
2023-03-12T06:38:16.447Z,1.79
2023-03-12T06:40:57.551Z,1.80
2023-03-12T06:43:30.888Z,1.79
2023-03-12T06:46:03.951Z,1.87
2023-03-12T06:48:37.150Z,1.89
2023-03-12T06:51:10.397Z,1.89
2023-03-12T06:53:42.752Z,1.95
2023-03-12T06:56:15.808Z,2.12
2023-03-12T06:58:47.440Z,2.16
2023-03-12T07:01:19.082Z,2.18
2023-03-12T07:03:50.782Z,2.22
2023-03-12T07:06:24.316Z,2.18
2023-03-12T07:08:56.484Z,2.10
2023-03-12T07:11:28.148Z,2.07
2023-03-12T07:13:59.693Z,1.92
2023-03-12T07:16:31.725Z,1.75
2023-03-12T07:19:04.323Z,1.68
2023-03-12T07:21:35.959Z,1.66
2023-03-12T07:24:09.754Z,1.60
2023-03-12T07:26:41.383Z,1.48
2023-03-12T07:29:13.721Z,1.42
2023-03-12T07:31:45.514Z,1.38
2023-03-12T07:34:17.956Z,1.37
2023-03-12T07:36:51.250Z,1.43
2023-03-12T07:39:22.917Z,1.62
2023-03-12T07:41:54.744Z,1.72
2023-03-12T07:44:26.916Z,1.90
2023-03-12T07:47:02.923Z,2.01
2023-03-12T07:49:38.772Z,2.15
2023-03-12T07:52:12.214Z,2.22
2023-03-12T07:54:44.625Z,2.35
2023-03-12T07:57:17.238Z,2.38
2023-03-12T07:59:49.063Z,2.29
2023-03-12T08:02:21.804Z,2.23
2023-03-12T08:04:54.188Z,2.18
2023-03-12T08:07:26.321Z,2.15
2023-03-12T08:09:59.035Z,2.07
2023-03-12T08:12:30.874Z,2.10
2023-03-12T08:15:02.538Z,2.15
2023-03-12T08:17:34.190Z,2.44
2023-03-12T08:20:08.782Z,2.80
2023-03-12T08:22:41.880Z,3.17
2023-03-12T08:25:14.536Z,3.43
2023-03-12T08:27:48.132Z,3.53
2023-03-12T08:30:21.939Z,3.66
2023-03-12T08:32:54.296Z,3.91
2023-03-12T08:35:26.148Z,4.21
2023-03-12T08:38:01.348Z,4.45
2023-03-12T08:40:33.401Z,4.73
2023-03-12T08:43:07.942Z,4.86
2023-03-12T08:45:39.872Z,5.00
2023-03-12T08:48:11.824Z,5.19
2023-03-12T08:50:43.745Z,5.14
2023-03-12T08:53:16.105Z,5.13
2023-03-12T08:55:47.916Z,5.18
2023-03-12T08:58:20.643Z,5.13
2023-03-12T09:00:52.527Z,5.13
2023-03-12T09:03:25.698Z,5.14
2023-03-12T09:06:06.884Z,4.99
2023-03-12T09:08:38.641Z,4.95
2023-03-12T09:11:19.632Z,5.11
2023-03-12T09:14:16.919Z,5.23
2023-03-12T09:16:44.167Z,5.34
2023-03-12T09:19:16.665Z,5.43
2023-03-12T09:21:49.071Z,5.31
2023-03-12T09:24:20.928Z,5.20
2023-03-12T09:26:52.904Z,5.13
2023-03-12T09:29:25.537Z,5.27
2023-03-12T09:31:57.212Z,5.22
2023-03-12T09:34:29.188Z,5.10
2023-03-12T09:37:00.899Z,5.08
2023-03-12T09:39:32.685Z,5.05
2023-03-12T09:42:05.210Z,5.07
2023-03-12T09:44:41.502Z,5.24
2023-03-12T09:47:25.474Z,5.41
2023-03-12T09:50:01.254Z,5.47
2023-03-12T09:52:39.270Z,5.65
2023-03-12T09:55:16.098Z,5.73
2023-03-12T09:57:50.855Z,5.77
2023-03-12T10:00:21.921Z,5.83
2023-03-12T10:03:21.192Z,5.76
2023-03-12T10:06:08.471Z,5.76
2023-03-12T10:08:55.273Z,5.82
2023-03-12T10:11:39.571Z,5.81
2023-03-12T10:14:24.491Z,5.89
2023-03-12T10:17:21.599Z,5.98
2023-03-12T10:20:10.665Z,5.99
2023-03-12T10:22:54.888Z,6.05
2023-03-12T10:25:35.555Z,6.07
2023-03-12T10:28:17.101Z,6.08
2023-03-12T10:30:55.937Z,6.12
2023-03-12T10:33:36.841Z,6.06
2023-03-12T10:36:16.744Z,6.10
2023-03-12T10:38:50.151Z,6.06
2023-03-12T10:41:24.758Z,5.98
2023-03-12T10:43:57.390Z,6.01
2023-03-12T10:46:53.305Z,5.92
2023-03-12T10:49:32.383Z,5.90
2023-03-12T10:52:06.926Z,5.90
2023-03-12T10:54:41.023Z,5.96
2023-03-12T10:57:13.460Z,5.80
2023-03-12T10:59:47.849Z,5.73
2023-03-12T11:02:44.220Z,5.72
2023-03-12T11:05:26.817Z,5.68
2023-03-12T11:08:00.464Z,5.76
2023-03-12T11:10:45.254Z,5.79
2023-03-12T11:13:30.327Z,5.84
2023-03-12T11:16:01.909Z,5.81
2023-03-12T11:18:37.265Z,5.85
2023-03-12T11:21:22.936Z,5.90
2023-03-12T11:24:12.999Z,5.99
2023-03-12T11:26:57.177Z,6.05
2023-03-12T11:29:40.688Z,6.00
2023-03-12T11:32:19.818Z,5.97
2023-03-12T11:34:53.431Z,5.95
2023-03-12T11:37:39.851Z,6.05
2023-03-12T11:40:27.434Z,6.33
2023-03-12T11:43:42.025Z,6.55
2023-03-12T11:46:33.602Z,6.66
2023-03-12T11:49:23.813Z,6.80
2023-03-12T11:52:02.322Z,7.01
2023-03-12T11:55:11.260Z,7.11
2023-03-12T11:57:55.620Z,7.10
2023-03-12T12:00:34.249Z,7.11
2023-03-12T12:03:35.650Z,6.92
2023-03-12T12:06:12.394Z,6.73
2023-03-12T12:09:05.228Z,6.63
2023-03-12T12:11:47.454Z,6.62
2023-03-12T12:14:35.923Z,6.62
2023-03-12T12:17:17.498Z,6.58
2023-03-12T12:20:02.268Z,6.53
2023-03-12T12:22:44.422Z,6.48
2023-03-12T12:25:40.088Z,6.41
2023-03-12T12:28:21.191Z,6.40
2023-03-12T12:31:04.953Z,6.45
2023-03-12T12:34:02.026Z,6.51
2023-03-12T12:36:37.134Z,6.58
2023-03-12T12:39:15.807Z,6.65
2023-03-12T12:41:51.448Z,6.72
2023-03-12T12:44:27.592Z,6.72
2023-03-12T12:47:04.161Z,6.71
2023-03-12T12:49:44.411Z,6.69
2023-03-12T12:52:20.840Z,6.75
2023-03-12T12:55:02.687Z,6.90
2023-03-12T12:57:41.378Z,7.03
2023-03-12T13:00:44.204Z,6.97
2023-03-12T13:03:22.778Z,6.92
2023-03-12T13:06:03.899Z,6.90
2023-03-12T13:08:53.557Z,7.07
2023-03-12T13:11:46.445Z,7.04
2023-03-12T13:14:25.046Z,6.84
2023-03-12T13:17:25.237Z,6.78
2023-03-12T13:20:03.479Z,6.87
2023-03-12T13:22:54.473Z,6.91
2023-03-12T13:25:38.497Z,6.86
2023-03-12T13:28:35.941Z,6.88
2023-03-12T13:31:41.468Z,6.93
2023-03-12T13:34:47.193Z,7.02
2023-03-12T13:37:54.620Z,6.98
2023-03-12T13:40:55.108Z,6.98
2023-03-12T13:43:51.641Z,7.08
2023-03-12T13:46:44.204Z,7.13
2023-03-12T13:49:21.688Z,7.22
2023-03-12T13:52:22.667Z,7.30
2023-03-12T13:55:03.534Z,7.34
2023-03-12T13:57:41.963Z,7.35
2023-03-12T14:00:21.573Z,7.28
2023-03-12T14:02:59.624Z,7.29
2023-03-12T14:05:35.967Z,7.41
2023-03-12T14:08:31.803Z,7.54
2023-03-12T14:11:22.620Z,7.60
2023-03-12T14:14:19.216Z,7.61
2023-03-12T14:16:54.689Z,7.64
2023-03-12T14:19:32.030Z,7.56
2023-03-12T14:22:10.358Z,7.49
2023-03-12T14:24:50.816Z,7.43
2023-03-12T14:27:28.005Z,7.36
2023-03-12T14:30:09.631Z,7.27
2023-03-12T14:32:43.292Z,7.13
2023-03-12T14:35:23.824Z,6.96
2023-03-12T14:38:01.716Z,6.81
2023-03-12T14:40:44.662Z,6.80
2023-03-12T14:43:27.040Z,6.86
2023-03-12T14:46:03.425Z,6.86
2023-03-12T14:48:37.834Z,6.82
2023-03-12T14:51:24.184Z,6.73
2023-03-12T14:53:57.730Z,6.76
2023-03-12T14:56:33.387Z,6.80
2023-03-12T14:59:24.877Z,6.77
2023-03-12T15:02:03.043Z,6.75
2023-03-12T15:04:38.545Z,6.73
2023-03-12T15:07:15.699Z,6.72
2023-03-12T15:09:52.083Z,6.68
2023-03-12T15:12:26.421Z,6.57
2023-03-12T15:15:04.687Z,6.63
2023-03-12T15:17:38.747Z,6.74
2023-03-12T15:20:21.183Z,6.75
2023-03-12T15:22:54.075Z,6.78
2023-03-12T15:25:28.608Z,6.80
2023-03-12T15:28:25.669Z,6.55
2023-03-12T15:31:15.574Z,6.46
2023-03-12T15:34:12.054Z,6.45
2023-03-12T15:37:01.224Z,6.63
2023-03-12T15:39:46.977Z,6.66
2023-03-12T15:42:44.662Z,6.58
2023-03-12T15:45:24.646Z,6.44
2023-03-12T15:47:59.533Z,6.31
2023-03-12T15:50:38.654Z,6.32
2023-03-12T15:53:26.734Z,6.28
2023-03-12T15:56:09.845Z,6.19
2023-03-12T15:58:43.878Z,6.20
2023-03-12T16:01:18.827Z,6.31
2023-03-12T16:03:53.619Z,6.30
2023-03-12T16:06:30.378Z,6.24
2023-03-12T16:09:06.729Z,6.09
2023-03-12T16:11:43.418Z,6.07
2023-03-12T16:14:21.878Z,6.03
2023-03-12T16:16:54.298Z,5.88
2023-03-12T16:19:30.378Z,5.74
2023-03-12T16:22:04.439Z,5.75
2023-03-12T16:24:37.120Z,5.70
2023-03-12T16:27:17.942Z,5.55
2023-03-12T16:29:55.830Z,5.46
2023-03-12T16:32:29.720Z,5.45
2023-03-12T16:35:02.500Z,5.39
2023-03-12T16:37:35.922Z,5.31
2023-03-12T16:40:11.789Z,5.11
2023-03-12T16:42:47.712Z,5.12
2023-03-12T16:45:22.728Z,5.09
2023-03-12T16:48:01.934Z,5.14
2023-03-12T16:50:37.041Z,5.25
2023-03-12T16:53:38.012Z,5.17
2023-03-12T16:56:21.213Z,5.10
2023-03-12T16:58:54.880Z,5.11
2023-03-12T17:01:32.917Z,5.10
2023-03-12T17:04:07.358Z,4.93
2023-03-12T17:06:42.568Z,4.79
2023-03-12T17:09:16.471Z,4.69
2023-03-12T17:12:13.547Z,4.61
2023-03-12T17:16:36.497Z,4.60
2023-03-12T17:19:06.402Z,4.68
2023-03-12T17:21:40.927Z,4.75
2023-03-12T17:24:14.858Z,4.67
2023-03-12T17:26:53.132Z,4.51
2023-03-12T17:29:27.732Z,4.42
2023-03-12T17:32:05.437Z,4.39
2023-03-12T17:34:39.951Z,4.43
2023-03-12T17:37:17.006Z,4.37
2023-03-12T17:39:54.988Z,4.25
2023-03-12T17:42:28.224Z,4.21
2023-03-12T17:45:01.759Z,4.13
2023-03-12T17:47:46.791Z,4.11
2023-03-12T17:50:59.669Z,4.08
2023-03-12T17:53:54.328Z,4.14
2023-03-12T17:56:29.335Z,4.27
2023-03-12T17:59:04.230Z,4.22
2023-03-12T18:01:38.160Z,4.08
2023-03-12T18:04:15.211Z,4.05
2023-03-12T18:06:53.140Z,3.98
2023-03-12T18:09:28.960Z,3.97
2023-03-12T18:12:03.319Z,3.91
2023-03-12T18:14:37.447Z,3.93
2023-03-12T18:17:12.674Z,3.95
2023-03-12T18:19:46.873Z,3.87
2023-03-12T18:22:22.306Z,3.82
2023-03-12T18:24:55.603Z,3.79
2023-03-12T18:27:32.203Z,3.78
2023-03-12T18:30:09.071Z,3.80
2023-03-12T18:32:46.372Z,3.79
2023-03-12T18:35:22.889Z,3.76
2023-03-12T18:37:59.424Z,3.66
2023-03-12T18:40:38.745Z,3.59
2023-03-12T18:43:15.594Z,3.57
2023-03-12T18:45:48.787Z,3.63
2023-03-12T18:48:22.964Z,3.53
2023-03-12T18:51:07.289Z,3.52
2023-03-12T18:53:41.233Z,3.57
2023-03-12T18:56:16.627Z,3.53
2023-03-12T18:58:57.905Z,3.47
2023-03-12T19:01:29.740Z,3.39
2023-03-12T19:04:10.281Z,3.43
2023-03-12T19:06:50.709Z,3.38
2023-03-12T19:09:26.122Z,3.27
2023-03-12T19:12:06.044Z,3.26
2023-03-12T19:14:40.843Z,3.26
2023-03-12T19:17:15.072Z,3.15
2023-03-12T19:19:49.201Z,3.11
2023-03-12T19:22:23.904Z,3.06
2023-03-12T19:24:59.813Z,3.06
2023-03-12T19:27:33.484Z,3.04
2023-03-12T19:30:12.431Z,2.98
2023-03-12T19:32:50.180Z,2.87
2023-03-12T19:35:23.894Z,2.78
2023-03-12T19:37:59.298Z,2.80
2023-03-12T19:40:32.659Z,2.79
2023-03-12T19:43:06.533Z,2.74
2023-03-12T19:45:45.638Z,2.92
2023-03-12T19:48:22.125Z,3.00
2023-03-12T19:50:58.240Z,3.02
2023-03-12T19:53:32.897Z,2.90
2023-03-12T19:56:06.894Z,2.78
2023-03-12T20:01:32.617Z,2.85
2023-03-12T20:04:09.941Z,2.92
2023-03-12T20:06:46.037Z,2.84
2023-03-12T20:09:24.259Z,2.73
2023-03-12T20:12:01.826Z,2.75
2023-03-12T20:14:36.174Z,2.83
2023-03-12T20:17:09.521Z,2.87
2023-03-12T20:19:44.473Z,2.83
2023-03-12T20:22:20.726Z,2.76
2023-03-12T20:25:02.884Z,2.75
2023-03-12T20:27:37.186Z,2.65
2023-03-12T20:30:20.065Z,2.63
2023-03-12T20:32:54.406Z,2.52
2023-03-12T20:35:29.944Z,2.54
2023-03-12T20:38:04.819Z,2.49
2023-03-12T20:40:37.817Z,2.71
2023-03-12T20:43:11.317Z,2.83
2023-03-12T20:45:53.989Z,2.84
2023-03-12T20:48:28.705Z,2.94
2023-03-12T20:51:07.264Z,3.00
2023-03-12T20:53:41.492Z,2.90
2023-03-12T20:56:18.333Z,2.92
2023-03-12T20:58:51.565Z,2.88
2023-03-12T21:01:27.253Z,2.65
2023-03-12T21:04:06.617Z,2.67
2023-03-12T21:06:41.858Z,2.69
2023-03-12T21:09:17.299Z,2.78
2023-03-12T21:11:55.654Z,2.90
2023-03-12T21:14:28.172Z,2.86
2023-03-12T21:17:04.037Z,2.77
2023-03-12T21:19:40.621Z,2.67
2023-03-12T21:22:13.607Z,2.64
2023-03-12T21:24:49.591Z,2.57
2023-03-12T21:27:22.004Z,2.62
2023-03-12T21:29:57.095Z,2.68
2023-03-12T21:32:30.787Z,2.73
2023-03-12T21:35:06.550Z,2.85
2023-03-12T21:37:39.841Z,2.85
2023-03-12T21:40:14.794Z,2.82
2023-03-12T21:42:48.175Z,2.82
2023-03-12T21:45:22.978Z,2.88
2023-03-12T21:47:54.308Z,2.92
2023-03-12T21:50:27.463Z,3.01
2023-03-12T21:52:59.313Z,2.97
2023-03-12T21:55:31.109Z,2.97
2023-03-12T21:58:02.851Z,2.94
2023-03-12T22:00:34.560Z,2.94
2023-03-12T22:03:07.133Z,2.98
2023-03-12T22:05:38.943Z,3.07
2023-03-12T22:08:10.868Z,3.11
2023-03-12T22:10:45.181Z,3.22
2023-03-12T22:13:16.932Z,3.25
2023-03-12T22:15:54.800Z,3.32
2023-03-12T22:18:27.064Z,3.33
2023-03-12T22:21:00.939Z,3.31
2023-03-12T22:23:33.653Z,3.34
2023-03-12T22:26:06.878Z,3.30
2023-03-12T22:28:38.728Z,3.24
2023-03-12T22:31:12.364Z,3.18
2023-03-12T22:33:44.119Z,3.20
2023-03-12T22:36:17.688Z,3.30
2023-03-12T22:38:51.051Z,3.33
2023-03-12T22:41:24.726Z,3.25
2023-03-12T22:43:58.155Z,3.17
2023-03-12T22:46:30.035Z,3.13
2023-03-12T22:49:03.379Z,3.17
2023-03-12T22:51:36.089Z,3.24
2023-03-12T22:54:07.856Z,3.36
2023-03-12T22:56:40.246Z,3.42
2023-03-12T22:59:12.127Z,3.45
2023-03-12T23:01:43.934Z,3.62
2023-03-12T23:04:15.545Z,3.49
2023-03-12T23:06:47.658Z,3.38
2023-03-12T23:09:19.449Z,3.28
2023-03-12T23:11:51.095Z,3.19
2023-03-12T23:14:22.787Z,3.16
2023-03-12T23:16:54.459Z,3.28
2023-03-12T23:19:26.669Z,3.31
2023-03-12T23:21:58.338Z,3.34
2023-03-12T23:24:31.192Z,3.38
2023-03-12T23:27:03.549Z,3.39
2023-03-12T23:29:36.431Z,3.34
2023-03-12T23:32:10.200Z,3.41
2023-03-12T23:34:41.990Z,3.35
2023-03-12T23:37:14.705Z,3.28
2023-03-12T23:39:54.514Z,3.26
2023-03-12T23:42:28.193Z,3.20
2023-03-12T23:45:00.023Z,3.19
2023-03-12T23:47:32.030Z,3.15
2023-03-12T23:50:03.737Z,3.09
2023-03-12T23:52:35.813Z,3.06
2023-03-12T23:55:08.962Z,3.17
2023-03-12T23:57:40.876Z,3.25
